sensor_id;sensor_type;location;lat;lon;timestamp;pressure;altitude;pressure_sealevel;temperature;humidity
11444;BME280;5778;47.856;12.154;2023-06-22T00:02:21;96389.19;;;20.66;100.00
11444;BME280;5778;47.856;12.154;2023-06-22T00:04:48;96391.91;;;20.66;100.00
11444;BME280;5778;47.856;12.154;2023-06-22T00:07:15;96398.72;;;20.64;100.00
11444;BME280;5778;47.856;12.154;2023-06-22T00:09:43;96393.81;;;20.66;100.00
11444;BME280;5778;47.856;12.154;2023-06-22T00:12:10;96397.00;;;20.68;100.00
11444;BME280;5778;47.856;12.154;2023-06-22T00:14:37;96396.22;;;20.67;100.00
11444;BME280;5778;47.856;12.154;2023-06-22T00:17:05;96411.00;;;20.70;100.00
11444;BME280;5778;47.856;12.154;2023-06-22T00:19:31;96419.34;;;20.43;100.00
11444;BME280;5778;47.856;12.154;2023-06-22T00:22:01;96419.94;;;20.40;100.00
11444;BME280;5778;47.856;12.154;2023-06-22T00:24:28;96415.03;;;20.50;100.00
11444;BME280;5778;47.856;12.154;2023-06-22T00:26:57;96414.91;;;20.55;100.00
11444;BME280;5778;47.856;12.154;2023-06-22T00:29:24;96406.50;;;20.57;100.00
11444;BME280;5778;47.856;12.154;2023-06-22T00:31:51;96401.09;;;20.57;100.00
11444;BME280;5778;47.856;12.154;2023-06-22T00:34:18;96393.78;;;20.57;100.00
11444;BME280;5778;47.856;12.154;2023-06-22T00:36:45;96402.34;;;20.51;100.00
11444;BME280;5778;47.856;12.154;2023-06-22T00:39:12;96404.31;;;20.28;100.00
11444;BME280;5778;47.856;12.154;2023-06-22T00:41:39;96394.31;;;20.29;100.00
11444;BME280;5778;47.856;12.154;2023-06-22T00:44:08;96391.63;;;20.29;100.00
11444;BME280;5778;47.856;12.154;2023-06-22T00:46:35;96378.44;;;20.36;100.00
11444;BME280;5778;47.856;12.154;2023-06-22T00:49:02;96380.38;;;20.35;100.00
11444;BME280;5778;47.856;12.154;2023-06-22T00:51:31;96379.41;;;20.40;100.00
11444;BME280;5778;47.856;12.154;2023-06-22T00:53:58;96383.53;;;20.37;100.00
11444;BME280;5778;47.856;12.154;2023-06-22T00:56:25;96375.41;;;20.29;100.00
11444;BME280;5778;47.856;12.154;2023-06-22T00:58:55;96372.09;;;20.32;100.00
11444;BME280;5778;47.856;12.154;2023-06-22T01:01:24;96365.94;;;20.09;100.00
11444;BME280;5778;47.856;12.154;2023-06-22T01:03:51;96372.00;;;19.93;100.00
11444;BME280;5778;47.856;12.154;2023-06-22T01:06:28;96370.38;;;19.83;100.00
11444;BME280;5778;47.856;12.154;2023-06-22T01:09:07;96372.66;;;19.90;100.00
11444;BME280;5778;47.856;12.154;2023-06-22T01:11:39;96365.41;;;19.99;100.00
11444;BME280;5778;47.856;12.154;2023-06-22T01:14:15;96369.88;;;20.03;100.00
11444;BME280;5778;47.856;12.154;2023-06-22T01:16:45;96369.88;;;20.03;100.00
11444;BME280;5778;47.856;12.154;2023-06-22T01:19:25;96373.25;;;20.09;100.00
11444;BME280;5778;47.856;12.154;2023-06-22T01:21:56;96378.16;;;20.07;100.00
11444;BME280;5778;47.856;12.154;2023-06-22T01:24:30;96374.47;;;20.03;100.00
11444;BME280;5778;47.856;12.154;2023-06-22T01:27:11;96372.25;;;20.05;100.00
11444;BME280;5778;47.856;12.154;2023-06-22T01:29:43;96358.09;;;19.99;100.00
11444;BME280;5778;47.856;12.154;2023-06-22T01:32:12;96356.66;;;19.71;100.00
11444;BME280;5778;47.856;12.154;2023-06-22T01:34:40;96350.97;;;19.73;100.00
11444;BME280;5778;47.856;12.154;2023-06-22T01:37:08;96350.59;;;19.66;100.00
11444;BME280;5778;47.856;12.154;2023-06-22T01:39:36;96349.88;;;19.52;100.00
11444;BME280;5778;47.856;12.154;2023-06-22T01:42:04;96356.25;;;19.56;100.00
11444;BME280;5778;47.856;12.154;2023-06-22T01:44:32;96352.22;;;19.45;100.00
11444;BME280;5778;47.856;12.154;2023-06-22T01:47:02;96355.09;;;19.48;100.00
11444;BME280;5778;47.856;12.154;2023-06-22T01:49:29;96341.78;;;19.52;100.00
11444;BME280;5778;47.856;12.154;2023-06-22T01:51:56;96350.34;;;19.54;100.00
11444;BME280;5778;47.856;12.154;2023-06-22T01:54:23;96353.63;;;19.42;100.00
11444;BME280;5778;47.856;12.154;2023-06-22T01:56:50;96340.13;;;19.42;100.00
11444;BME280;5778;47.856;12.154;2023-06-22T01:59:23;96330.63;;;19.45;100.00
11444;BME280;5778;47.856;12.154;2023-06-22T02:01:55;96334.81;;;19.51;100.00
11444;BME280;5778;47.856;12.154;2023-06-22T02:04:27;96334.22;;;19.40;100.00
11444;BME280;5778;47.856;12.154;2023-06-22T02:07:00;96333.63;;;19.43;100.00
11444;BME280;5778;47.856;12.154;2023-06-22T02:09:29;96331.84;;;19.39;100.00
11444;BME280;5778;47.856;12.154;2023-06-22T02:11:58;96327.25;;;19.39;100.00
11444;BME280;5778;47.856;12.154;2023-06-22T02:14:27;96327.63;;;19.24;100.00
11444;BME280;5778;47.856;12.154;2023-06-22T02:16:55;96332.59;;;18.95;100.00
11444;BME280;5778;47.856;12.154;2023-06-22T02:19:26;96340.50;;;18.92;100.00
11444;BME280;5778;47.856;12.154;2023-06-22T02:21:53;96328.41;;;18.89;100.00
11444;BME280;5778;47.856;12.154;2023-06-22T02:24:20;96330.09;;;18.99;100.00
11444;BME280;5778;47.856;12.154;2023-06-22T02:26:49;96322.81;;;18.99;100.00
11444;BME280;5778;47.856;12.154;2023-06-22T02:29:16;96319.47;;;19.02;100.00
11444;BME280;5778;47.856;12.154;2023-06-22T02:31:43;96328.84;;;19.05;100.00
11444;BME280;5778;47.856;12.154;2023-06-22T02:34:11;96321.69;;;19.00;100.00
11444;BME280;5778;47.856;12.154;2023-06-22T02:36:46;96319.22;;;18.90;100.00
11444;BME280;5778;47.856;12.154;2023-06-22T02:39:18;96312.72;;;18.91;100.00
11444;BME280;5778;47.856;12.154;2023-06-22T02:41:45;96314.66;;;18.91;100.00
11444;BME280;5778;47.856;12.154;2023-06-22T02:44:14;96314.47;;;18.87;100.00
11444;BME280;5778;47.856;12.154;2023-06-22T02:46:41;96315.16;;;18.79;100.00
11444;BME280;5778;47.856;12.154;2023-06-22T02:49:09;96323.28;;;18.66;100.00
11444;BME280;5778;47.856;12.154;2023-06-22T02:51:38;96320.97;;;18.73;100.00
11444;BME280;5778;47.856;12.154;2023-06-22T02:54:08;96322.06;;;18.72;100.00
11444;BME280;5778;47.856;12.154;2023-06-22T02:56:36;96329.03;;;18.73;100.00
11444;BME280;5778;47.856;12.154;2023-06-22T03:01:37;96325.50;;;18.64;100.00
11444;BME280;5778;47.856;12.154;2023-06-22T03:04:09;96329.97;;;18.68;100.00
11444;BME280;5778;47.856;12.154;2023-06-22T03:06:36;96331.25;;;18.71;100.00
11444;BME280;5778;47.856;12.154;2023-06-22T03:09:08;96341.44;;;18.74;100.00
11444;BME280;5778;47.856;12.154;2023-06-22T03:11:36;96336.25;;;18.64;100.00
11444;BME280;5778;47.856;12.154;2023-06-22T03:14:03;96343.06;;;18.61;100.00
11444;BME280;5778;47.856;12.154;2023-06-22T03:16:30;96349.31;;;18.57;100.00
11444;BME280;5778;47.856;12.154;2023-06-22T03:18:58;96347.53;;;18.52;100.00
11444;BME280;5778;47.856;12.154;2023-06-22T03:21:27;96342.97;;;18.53;100.00
11444;BME280;5778;47.856;12.154;2023-06-22T03:23:55;96347.75;;;18.42;100.00
11444;BME280;5778;47.856;12.154;2023-06-22T03:26:24;96348.47;;;18.34;100.00
11444;BME280;5778;47.856;12.154;2023-06-22T03:28:52;96355.31;;;18.27;100.00
11444;BME280;5778;47.856;12.154;2023-06-22T03:31:19;96357.66;;;18.33;100.00
11444;BME280;5778;47.856;12.154;2023-06-22T03:33:47;96363.59;;;18.30;100.00
11444;BME280;5778;47.856;12.154;2023-06-22T03:36:15;96369.72;;;18.36;100.00
11444;BME280;5778;47.856;12.154;2023-06-22T03:38:44;96372.41;;;18.36;100.00
11444;BME280;5778;47.856;12.154;2023-06-22T03:41:11;96377.56;;;18.46;100.00
11444;BME280;5778;47.856;12.154;2023-06-22T03:43:41;96378.38;;;18.46;100.00
11444;BME280;5778;47.856;12.154;2023-06-22T03:46:08;96380.34;;;18.41;100.00
11444;BME280;5778;47.856;12.154;2023-06-22T03:48:35;96380.34;;;18.41;100.00
11444;BME280;5778;47.856;12.154;2023-06-22T03:51:02;96382.66;;;18.47;100.00
11444;BME280;5778;47.856;12.154;2023-06-22T03:53:29;96380.16;;;18.51;100.00
11444;BME280;5778;47.856;12.154;2023-06-22T03:55:56;96379.56;;;18.54;100.00
11444;BME280;5778;47.856;12.154;2023-06-22T03:58:23;96373.34;;;18.67;100.00
11444;BME280;5778;47.856;12.154;2023-06-22T04:00:52;96378.44;;;18.82;100.00
11444;BME280;5778;47.856;12.154;2023-06-22T04:03:19;96381.63;;;18.84;100.00
11444;BME280;5778;47.856;12.154;2023-06-22T04:05:47;96389.47;;;18.94;100.00
11444;BME280;5778;47.856;12.154;2023-06-22T04:08:14;96382.28;;;19.03;100.00
11444;BME280;5778;47.856;12.154;2023-06-22T04:10:41;96378.25;;;19.14;100.00
11444;BME280;5778;47.856;12.154;2023-06-22T04:13:08;96370.34;;;19.17;100.00
11444;BME280;5778;47.856;12.154;2023-06-22T04:15:35;96375.56;;;19.27;100.00
11444;BME280;5778;47.856;12.154;2023-06-22T04:18:04;96371.81;;;19.37;100.00
11444;BME280;5778;47.856;12.154;2023-06-22T04:20:31;96363.47;;;19.47;100.00
11444;BME280;5778;47.856;12.154;2023-06-22T04:22:58;96367.03;;;19.56;100.00
11444;BME280;5778;47.856;12.154;2023-06-22T04:25:25;96368.38;;;19.67;100.00
11444;BME280;5778;47.856;12.154;2023-06-22T04:27:52;96369.41;;;19.79;100.00
11444;BME280;5778;47.856;12.154;2023-06-22T04:30:19;96371.38;;;19.87;100.00
11444;BME280;5778;47.856;12.154;2023-06-22T04:32:46;96368.88;;;19.69;100.00
11444;BME280;5778;47.856;12.154;2023-06-22T04:35:24;96369.34;;;19.49;100.00
11444;BME280;5778;47.856;12.154;2023-06-22T04:37:53;96365.88;;;19.70;100.00
11444;BME280;5778;47.856;12.154;2023-06-22T04:40:22;96352.78;;;19.86;100.00
11444;BME280;5778;47.856;12.154;2023-06-22T04:42:49;96356.97;;;20.00;100.00
11444;BME280;5778;47.856;12.154;2023-06-22T04:45:19;96354.03;;;20.10;100.00
11444;BME280;5778;47.856;12.154;2023-06-22T04:47:47;96346.81;;;20.28;100.00
11444;BME280;5778;47.856;12.154;2023-06-22T04:50:14;96340.66;;;20.44;100.00
11444;BME280;5778;47.856;12.154;2023-06-22T04:52:43;96341.66;;;20.57;100.00
11444;BME280;5778;47.856;12.154;2023-06-22T04:55:11;96343.44;;;20.70;100.00
11444;BME280;5778;47.856;12.154;2023-06-22T04:57:38;96353.00;;;20.76;100.00
11444;BME280;5778;47.856;12.154;2023-06-22T05:00:06;96350.47;;;20.88;100.00
11444;BME280;5778;47.856;12.154;2023-06-22T05:02:38;96342.84;;;20.90;100.00
11444;BME280;5778;47.856;12.154;2023-06-22T05:05:05;96335.09;;;21.31;100.00
11444;BME280;5778;47.856;12.154;2023-06-22T05:07:33;96340.00;;;21.29;100.00
11444;BME280;5778;47.856;12.154;2023-06-22T05:10:02;96344.47;;;21.33;100.00
11444;BME280;5778;47.856;12.154;2023-06-22T05:12:29;96340.81;;;21.04;100.00
11444;BME280;5778;47.856;12.154;2023-06-22T05:14:57;96335.56;;;20.90;100.00
11444;BME280;5778;47.856;12.154;2023-06-22T05:17:24;96335.56;;;21.24;100.00
11444;BME280;5778;47.856;12.154;2023-06-22T05:19:51;96342.69;;;21.46;100.00
11444;BME280;5778;47.856;12.154;2023-06-22T05:22:18;96341.69;;;21.93;100.00
11444;BME280;5778;47.856;12.154;2023-06-22T05:24:46;96330.25;;;21.62;100.00
11444;BME280;5778;47.856;12.154;2023-06-22T05:27:14;96322.16;;;21.70;100.00
11444;BME280;5778;47.856;12.154;2023-06-22T05:29:41;96336.63;;;21.83;100.00
11444;BME280;5778;47.856;12.154;2023-06-22T05:32:09;96331.66;;;21.93;100.00
11444;BME280;5778;47.856;12.154;2023-06-22T05:34:36;96338.69;;;21.86;100.00
11444;BME280;5778;47.856;12.154;2023-06-22T05:37:04;96328.06;;;21.72;100.00
11444;BME280;5778;47.856;12.154;2023-06-22T05:39:30;96326.91;;;21.82;100.00
11444;BME280;5778;47.856;12.154;2023-06-22T05:41:57;96325.44;;;21.93;100.00
11444;BME280;5778;47.856;12.154;2023-06-22T05:44:26;96314.59;;;22.39;100.00
11444;BME280;5778;47.856;12.154;2023-06-22T05:46:52;96316.75;;;22.54;100.00
11444;BME280;5778;47.856;12.154;2023-06-22T05:49:19;96325.56;;;22.51;100.00
11444;BME280;5778;47.856;12.154;2023-06-22T05:51:47;96325.47;;;22.68;100.00
11444;BME280;5778;47.856;12.154;2023-06-22T05:54:14;96330.50;;;22.78;100.00
11444;BME280;5778;47.856;12.154;2023-06-22T05:56:43;96325.13;;;22.69;100.00
11444;BME280;5778;47.856;12.154;2023-06-22T05:59:10;96324.78;;;22.71;100.00
11444;BME280;5778;47.856;12.154;2023-06-22T06:01:39;96325.06;;;22.78;100.00
11444;BME280;5778;47.856;12.154;2023-06-22T06:04:06;96318.16;;;22.60;100.00
11444;BME280;5778;47.856;12.154;2023-06-22T06:06:33;96328.44;;;22.75;100.00
11444;BME280;5778;47.856;12.154;2023-06-22T06:09:02;96321.38;;;22.82;100.00
11444;BME280;5778;47.856;12.154;2023-06-22T06:11:29;96316.94;;;22.98;100.00
11444;BME280;5778;47.856;12.154;2023-06-22T06:13:56;96319.66;;;22.78;100.00
11444;BME280;5778;47.856;12.154;2023-06-22T06:16:23;96314.47;;;22.64;100.00
11444;BME280;5778;47.856;12.154;2023-06-22T06:18:51;96323.19;;;22.70;100.00
11444;BME280;5778;47.856;12.154;2023-06-22T06:21:20;96317.06;;;23.02;100.00
11444;BME280;5778;47.856;12.154;2023-06-22T06:23:47;96317.28;;;22.97;100.00
11444;BME280;5778;47.856;12.154;2023-06-22T06:26:14;96316.69;;;22.91;100.00
11444;BME280;5778;47.856;12.154;2023-06-22T06:28:42;96315.13;;;22.61;100.00
11444;BME280;5778;47.856;12.154;2023-06-22T06:31:09;96316.69;;;23.12;100.00
11444;BME280;5778;47.856;12.154;2023-06-22T06:33:37;96322.16;;;23.44;100.00
11444;BME280;5778;47.856;12.154;2023-06-22T06:36:06;96311.91;;;23.50;100.00
11444;BME280;5778;47.856;12.154;2023-06-22T06:38:33;96317.56;;;23.45;100.00
11444;BME280;5778;47.856;12.154;2023-06-22T06:41:00;96311.94;;;23.62;100.00
11444;BME280;5778;47.856;12.154;2023-06-22T06:43:27;96311.06;;;23.90;100.00
11444;BME280;5778;47.856;12.154;2023-06-22T06:45:54;96312.91;;;24.10;100.00
11444;BME280;5778;47.856;12.154;2023-06-22T06:48:21;96305.31;;;24.40;100.00
11444;BME280;5778;47.856;12.154;2023-06-22T06:50:48;96301.38;;;24.61;100.00
11444;BME280;5778;47.856;12.154;2023-06-22T06:53:16;96309.22;;;24.63;100.00
11444;BME280;5778;47.856;12.154;2023-06-22T06:55:43;96299.22;;;23.74;100.00
11444;BME280;5778;47.856;12.154;2023-06-22T06:58:10;96307.53;;;23.90;100.00
11444;BME280;5778;47.856;12.154;2023-06-22T07:00:38;96312.09;;;24.22;100.00
11444;BME280;5778;47.856;12.154;2023-06-22T07:03:05;96305.44;;;24.31;100.00
11444;BME280;5778;47.856;12.154;2023-06-22T07:05:33;96301.00;;;24.39;100.00
11444;BME280;5778;47.856;12.154;2023-06-22T07:08:00;96299.22;;;24.79;100.00
11444;BME280;5778;47.856;12.154;2023-06-22T07:10:29;96293.09;;;25.21;100.00
11444;BME280;5778;47.856;12.154;2023-06-22T07:12:56;96291.75;;;25.55;100.00
11444;BME280;5778;47.856;12.154;2023-06-22T07:15:23;96290.97;;;25.70;100.00
11444;BME280;5778;47.856;12.154;2023-06-22T07:17:50;96281.13;;;25.93;100.00
11444;BME280;5778;47.856;12.154;2023-06-22T07:20:17;96279.31;;;25.85;100.00
11444;BME280;5778;47.856;12.154;2023-06-22T07:22:45;96273.19;;;25.88;100.00
11444;BME280;5778;47.856;12.154;2023-06-22T07:25:12;96272.56;;;25.24;100.00
11444;BME280;5778;47.856;12.154;2023-06-22T07:27:45;96278.63;;;25.45;100.00
11444;BME280;5778;47.856;12.154;2023-06-22T07:30:13;96277.44;;;25.73;100.00
11444;BME280;5778;47.856;12.154;2023-06-22T07:32:40;96279.19;;;25.93;100.00
11444;BME280;5778;47.856;12.154;2023-06-22T07:35:08;96276.47;;;26.09;100.00
11444;BME280;5778;47.856;12.154;2023-06-22T07:37:35;96273.84;;;26.28;100.00
11444;BME280;5778;47.856;12.154;2023-06-22T07:40:02;96259.22;;;26.36;100.00
11444;BME280;5778;47.856;12.154;2023-06-22T07:42:32;96266.22;;;26.52;100.00
11444;BME280;5778;47.856;12.154;2023-06-22T07:45:02;96272.91;;;26.70;100.00
11444;BME280;5778;47.856;12.154;2023-06-22T07:47:30;96270.22;;;26.55;100.00
11444;BME280;5778;47.856;12.154;2023-06-22T07:50:01;96262.91;;;26.93;100.00
11444;BME280;5778;47.856;12.154;2023-06-22T07:52:29;96266.97;;;27.18;100.00
11444;BME280;5778;47.856;12.154;2023-06-22T07:54:56;96266.34;;;27.25;100.00
11444;BME280;5778;47.856;12.154;2023-06-22T07:57:23;96264.53;;;27.51;100.00
11444;BME280;5778;47.856;12.154;2023-06-22T07:59:57;96261.56;;;27.60;100.00
11444;BME280;5778;47.856;12.154;2023-06-22T08:02:26;96263.41;;;27.75;100.00
11444;BME280;5778;47.856;12.154;2023-06-22T08:04:53;96269.03;;;27.82;100.00
11444;BME280;5778;47.856;12.154;2023-06-22T08:07:20;96268.81;;;28.13;100.00
11444;BME280;5778;47.856;12.154;2023-06-22T08:09:47;96267.03;;;28.24;100.00
11444;BME280;5778;47.856;12.154;2023-06-22T08:12:14;96265.66;;;27.88;100.00
11444;BME280;5778;47.856;12.154;2023-06-22T08:14:42;96271.50;;;27.49;100.00
11444;BME280;5778;47.856;12.154;2023-06-22T08:17:09;96271.75;;;27.82;100.00
11444;BME280;5778;47.856;12.154;2023-06-22T08:19:39;96270.31;;;28.10;100.00
11444;BME280;5778;47.856;12.154;2023-06-22T08:22:06;96274.22;;;28.09;100.00
11444;BME280;5778;47.856;12.154;2023-06-22T08:24:33;96275.47;;;27.93;100.00
11444;BME280;5778;47.856;12.154;2023-06-22T08:26:59;96262.13;;;27.69;100.00
11444;BME280;5778;47.856;12.154;2023-06-22T08:29:26;96263.28;;;27.87;100.00
11444;BME280;5778;47.856;12.154;2023-06-22T08:31:53;96267.56;;;27.88;100.00
11444;BME280;5778;47.856;12.154;2023-06-22T08:34:20;96261.03;;;27.92;100.00
11444;BME280;5778;47.856;12.154;2023-06-22T08:36:54;96255.91;;;28.58;100.00
11444;BME280;5778;47.856;12.154;2023-06-22T08:39:21;96246.31;;;28.71;100.00
11444;BME280;5778;47.856;12.154;2023-06-22T08:41:48;96249.91;;;29.01;100.00
11444;BME280;5778;47.856;12.154;2023-06-22T08:44:18;96252.97;;;29.59;100.00
11444;BME280;5778;47.856;12.154;2023-06-22T08:46:45;96252.50;;;29.90;100.00
11444;BME280;5778;47.856;12.154;2023-06-22T08:49:12;96245.66;;;30.10;100.00
11444;BME280;5778;47.856;12.154;2023-06-22T08:51:39;96251.00;;;30.36;100.00
11444;BME280;5778;47.856;12.154;2023-06-22T08:54:08;96263.31;;;30.56;100.00
11444;BME280;5778;47.856;12.154;2023-06-22T08:56:34;96256.09;;;30.34;100.00
11444;BME280;5778;47.856;12.154;2023-06-22T08:59:01;96244.13;;;30.59;100.00
11444;BME280;5778;47.856;12.154;2023-06-22T09:01:28;96257.19;;;30.69;100.00
11444;BME280;5778;47.856;12.154;2023-06-22T09:03:55;96246.75;;;30.02;100.00
11444;BME280;5778;47.856;12.154;2023-06-22T09:06:23;96241.38;;;29.39;100.00
11444;BME280;5778;47.856;12.154;2023-06-22T09:08:50;96249.25;;;30.14;100.00
11444;BME280;5778;47.856;12.154;2023-06-22T09:11:18;96248.19;;;30.79;100.00
11444;BME280;5778;47.856;12.154;2023-06-22T09:13:45;96255.38;;;30.98;92.51
11444;BME280;5778;47.856;12.154;2023-06-22T09:16:13;96254.28;;;31.16;88.86
11444;BME280;5778;47.856;12.154;2023-06-22T09:18:40;96246.16;;;31.27;92.78
11444;BME280;5778;47.856;12.154;2023-06-22T09:21:07;96246.19;;;31.41;88.80
11444;BME280;5778;47.856;12.154;2023-06-22T09:23:34;96248.94;;;31.44;89.90
11444;BME280;5778;47.856;12.154;2023-06-22T09:26:01;96245.97;;;31.91;87.99
11444;BME280;5778;47.856;12.154;2023-06-22T09:28:31;96240.50;;;32.09;88.45
11444;BME280;5778;47.856;12.154;2023-06-22T09:30:58;96238.50;;;31.99;91.03
11444;BME280;5778;47.856;12.154;2023-06-22T09:33:26;96227.56;;;32.27;81.66
11444;BME280;5778;47.856;12.154;2023-06-22T09:35:53;96227.94;;;32.32;78.60
11444;BME280;5778;47.856;12.154;2023-06-22T09:38:20;96229.91;;;32.28;86.26
11444;BME280;5778;47.856;12.154;2023-06-22T09:40:46;96226.78;;;32.30;84.87
11444;BME280;5778;47.856;12.154;2023-06-22T09:43:13;96217.69;;;32.82;82.04
11444;BME280;5778;47.856;12.154;2023-06-22T09:45:42;96214.13;;;32.92;79.79
11444;BME280;5778;47.856;12.154;2023-06-22T09:48:09;96207.84;;;32.84;78.50
11444;BME280;5778;47.856;12.154;2023-06-22T09:50:36;96205.09;;;32.77;76.17
11444;BME280;5778;47.856;12.154;2023-06-22T09:53:03;96210.19;;;32.72;72.06
11444;BME280;5778;47.856;12.154;2023-06-22T09:55:30;96209.81;;;32.80;72.10
11444;BME280;5778;47.856;12.154;2023-06-22T09:57:56;96217.22;;;32.97;66.10
11444;BME280;5778;47.856;12.154;2023-06-22T10:00:23;96215.13;;;33.43;66.23
11444;BME280;5778;47.856;12.154;2023-06-22T10:02:53;96203.78;;;33.17;64.07
11444;BME280;5778;47.856;12.154;2023-06-22T10:05:21;96206.09;;;33.36;64.36
11444;BME280;5778;47.856;12.154;2023-06-22T10:07:48;96208.34;;;33.55;60.40
11444;BME280;5778;47.856;12.154;2023-06-22T10:10:15;96207.06;;;33.80;58.05
11444;BME280;5778;47.856;12.154;2023-06-22T10:12:45;96200.88;;;34.17;58.00
11444;BME280;5778;47.856;12.154;2023-06-22T10:15:12;96192.00;;;33.92;59.98
11444;BME280;5778;47.856;12.154;2023-06-22T10:17:39;96194.63;;;34.09;59.40
11444;BME280;5778;47.856;12.154;2023-06-22T10:20:09;96201.28;;;33.54;58.04
11444;BME280;5778;47.856;12.154;2023-06-22T10:22:38;96200.03;;;33.65;59.34
11444;BME280;5778;47.856;12.154;2023-06-22T10:25:07;96195.66;;;33.71;58.47
11444;BME280;5778;47.856;12.154;2023-06-22T10:27:34;96196.16;;;34.14;58.45
11444;BME280;5778;47.856;12.154;2023-06-22T10:30:01;96194.34;;;34.48;58.10
11444;BME280;5778;47.856;12.154;2023-06-22T10:32:27;96184.91;;;34.42;57.16
11444;BME280;5778;47.856;12.154;2023-06-22T10:34:55;96172.31;;;33.90;60.71
11444;BME280;5778;47.856;12.154;2023-06-22T10:37:24;96172.69;;;34.43;56.46
11444;BME280;5778;47.856;12.154;2023-06-22T10:39:50;96162.97;;;34.28;55.60
11444;BME280;5778;47.856;12.154;2023-06-22T10:42:17;96164.88;;;34.34;52.79
11444;BME280;5778;47.856;12.154;2023-06-22T10:44:44;96159.66;;;34.43;57.59
11444;BME280;5778;47.856;12.154;2023-06-22T10:47:11;96156.59;;;34.71;55.65
11444;BME280;5778;47.856;12.154;2023-06-22T10:49:38;96160.41;;;34.88;50.18
11444;BME280;5778;47.856;12.154;2023-06-22T10:52:06;96154.78;;;34.95;50.68
11444;BME280;5778;47.856;12.154;2023-06-22T10:54:35;96149.84;;;35.43;49.55
11444;BME280;5778;47.856;12.154;2023-06-22T10:57:03;96151.63;;;35.56;47.42
11444;BME280;5778;47.856;12.154;2023-06-22T10:59:30;96152.03;;;35.55;48.94
11444;BME280;5778;47.856;12.154;2023-06-22T11:01:58;96149.81;;;35.73;47.88
11444;BME280;5778;47.856;12.154;2023-06-22T11:04:25;96147.19;;;35.92;48.50
11444;BME280;5778;47.856;12.154;2023-06-22T11:06:51;96144.72;;;36.21;44.21
11444;BME280;5778;47.856;12.154;2023-06-22T11:09:18;96139.19;;;36.44;43.18
11444;BME280;5778;47.856;12.154;2023-06-22T11:11:47;96139.84;;;36.28;41.41
11444;BME280;5778;47.856;12.154;2023-06-22T11:14:14;96133.28;;;36.65;39.30
11444;BME280;5778;47.856;12.154;2023-06-22T11:16:41;96132.69;;;36.31;40.74
11444;BME280;5778;47.856;12.154;2023-06-22T11:19:08;96127.19;;;36.50;41.07
11444;BME280;5778;47.856;12.154;2023-06-22T11:21:34;96123.34;;;36.44;40.89
11444;BME280;5778;47.856;12.154;2023-06-22T11:24:02;96124.84;;;36.49;39.63
11444;BME280;5778;47.856;12.154;2023-06-22T11:26:29;96127.00;;;36.15;42.02
11444;BME280;5778;47.856;12.154;2023-06-22T11:28:58;96115.72;;;36.29;39.48
11444;BME280;5778;47.856;12.154;2023-06-22T11:31:25;96119.06;;;36.17;40.41
11444;BME280;5778;47.856;12.154;2023-06-22T11:33:52;96105.75;;;36.54;39.13
11444;BME280;5778;47.856;12.154;2023-06-22T11:36:19;96099.09;;;36.91;40.38
11444;BME280;5778;47.856;12.154;2023-06-22T11:38:46;96093.28;;;37.24;39.74
11444;BME280;5778;47.856;12.154;2023-06-22T11:41:13;96094.84;;;37.06;40.24
11444;BME280;5778;47.856;12.154;2023-06-22T11:43:39;96087.91;;;37.33;38.70
11444;BME280;5778;47.856;12.154;2023-06-22T11:46:08;96087.59;;;37.12;36.74
11444;BME280;5778;47.856;12.154;2023-06-22T11:48:34;96085.75;;;37.41;37.96
11444;BME280;5778;47.856;12.154;2023-06-22T11:51:02;96092.13;;;37.22;38.02
11444;BME280;5778;47.856;12.154;2023-06-22T11:53:29;96102.47;;;37.73;36.15
11444;BME280;5778;47.856;12.154;2023-06-22T11:55:56;96092.94;;;38.22;35.03
11444;BME280;5778;47.856;12.154;2023-06-22T11:58:23;96088.97;;;38.07;35.33
11444;BME280;5778;47.856;12.154;2023-06-22T12:00:50;96083.56;;;38.32;35.38
11444;BME280;5778;47.856;12.154;2023-06-22T12:03:19;96085.66;;;38.12;36.75
11444;BME280;5778;47.856;12.154;2023-06-22T12:05:46;96080.94;;;38.69;35.62
11444;BME280;5778;47.856;12.154;2023-06-22T12:08:13;96077.56;;;38.33;34.33
11444;BME280;5778;47.856;12.154;2023-06-22T12:10:40;96067.94;;;38.22;35.44
11444;BME280;5778;47.856;12.154;2023-06-22T12:13:07;96065.19;;;38.06;34.22
11444;BME280;5778;47.856;12.154;2023-06-22T12:15:34;96059.34;;;38.32;34.68
11444;BME280;5778;47.856;12.154;2023-06-22T12:18:01;96052.50;;;37.89;34.24
11444;BME280;5778;47.856;12.154;2023-06-22T12:20:29;96052.78;;;38.39;33.40
11444;BME280;5778;47.856;12.154;2023-06-22T12:22:57;96052.81;;;38.23;33.01
11444;BME280;5778;47.856;12.154;2023-06-22T12:25:25;96051.22;;;38.38;33.10
11444;BME280;5778;47.856;12.154;2023-06-22T12:27:52;96050.59;;;39.03;32.72
11444;BME280;5778;47.856;12.154;2023-06-22T12:30:19;96052.13;;;38.92;31.12
11444;BME280;5778;47.856;12.154;2023-06-22T12:32:46;96040.59;;;39.18;31.57
11444;BME280;5778;47.856;12.154;2023-06-22T12:35:13;96036.53;;;39.35;30.88
11444;BME280;5778;47.856;12.154;2023-06-22T12:37:43;96038.84;;;39.24;32.26
11444;BME280;5778;47.856;12.154;2023-06-22T12:40:10;96040.16;;;39.70;31.43
11444;BME280;5778;47.856;12.154;2023-06-22T12:42:39;96044.78;;;39.39;31.96
11444;BME280;5778;47.856;12.154;2023-06-22T12:45:08;96039.41;;;39.44;31.13
11444;BME280;5778;47.856;12.154;2023-06-22T12:47:35;96027.81;;;39.08;31.72
11444;BME280;5778;47.856;12.154;2023-06-22T12:50:02;96026.69;;;39.06;32.66
11444;BME280;5778;47.856;12.154;2023-06-22T12:52:30;96021.66;;;38.88;33.69
11444;BME280;5778;47.856;12.154;2023-06-22T12:54:59;96023.03;;;38.68;34.06
11444;BME280;5778;47.856;12.154;2023-06-22T12:57:26;96009.91;;;38.40;33.36
11444;BME280;5778;47.856;12.154;2023-06-22T12:59:52;96008.25;;;38.14;34.03